Time;durP1;ratioP1;P1;durP2;ratioP2;P2;SDS_P1;SDS_P2;PMS_P1;PMS_P2;Temp;Humidity;BMP_temperature;BMP_pressure;BME280_temperature;BME280_humidity;BME280_pressure;Samples;Min_cycle;Max_cycle;Signal;HPM_P1;HPM_P2
2023/08/17 00:01:27;;;;;;;6.40;3.30;;;15.80;99.90;;;;;;5070548;28;20501;-92
2023/08/17 00:03:53;;;;;;;5.93;3.60;;;15.80;99.90;;;;;;5070485;28;20391;-93
2023/08/17 00:06:18;;;;;;;8.00;3.67;;;16.30;99.90;;;;;;5086658;28;20430;-91
2023/08/17 00:08:44;;;;;;;7.60;3.53;;;15.70;99.90;;;;;;5070701;28;20394;-94
2023/08/17 00:11:10;;;;;;;7.10;3.23;;;16.10;99.90;;;;;;5069850;28;20408;-94
2023/08/17 00:13:35;;;;;;;7.60;4.22;;;15.90;99.90;;;;;;5070522;28;20473;-93
2023/08/17 00:16:01;;;;;;;6.35;3.80;;;15.90;99.90;;;;;;5070067;28;20410;-91
2023/08/17 00:18:27;;;;;;;5.47;3.27;;;15.60;99.90;;;;;;5070500;28;20406;-91
2023/08/17 00:20:53;;;;;;;6.55;3.50;;;15.90;99.90;;;;;;5087189;28;20917;-91
2023/08/17 00:23:20;;;;;;;5.85;3.95;;;15.80;99.90;;;;;;5087182;28;20402;-92
2023/08/17 00:25:47;;;;;;;7.43;3.60;;;15.40;99.90;;;;;;5070276;28;20426;-93
2023/08/17 00:28:13;;;;;;;7.32;3.47;;;15.40;99.90;;;;;;5086737;28;20410;-92
2023/08/17 00:30:39;;;;;;;7.97;4.05;;;15.40;99.90;;;;;;5070579;28;20421;-92
2023/08/17 00:33:05;;;;;;;5.45;4.35;;;15.70;99.90;;;;;;5069578;28;20759;-92
2023/08/17 00:35:32;;;;;;;8.35;4.63;;;15.40;99.90;;;;;;5070479;28;20409;-93
2023/08/17 00:37:59;;;;;;;6.72;4.53;;;15.50;99.90;;;;;;5070020;28;20712;-93
2023/08/17 00:40:24;;;;;;;6.72;3.72;;;15.80;99.90;;;;;;5086714;28;20413;-92
2023/08/17 00:42:50;;;;;;;6.63;3.80;;;15.40;99.90;;;;;;5069935;28;20413;-92
2023/08/17 00:45:17;;;;;;;5.93;3.97;;;15.30;99.90;;;;;;5069602;28;20422;-92
2023/08/17 00:47:43;;;;;;;8.82;4.50;;;14.90;99.90;;;;;;5070196;28;20398;-92
2023/08/17 00:50:10;;;;;;;6.60;3.90;;;15.30;99.90;;;;;;5069370;28;20421;-92
2023/08/17 00:52:36;;;;;;;7.00;4.88;;;15.10;99.90;;;;;;5070259;28;20771;-93
2023/08/17 00:55:03;;;;;;;7.90;5.30;;;15.30;99.90;;;;;;5069842;28;20811;-93
2023/08/17 00:57:31;;;;;;;6.60;4.25;;;15.00;99.90;;;;;;5070144;28;20770;-92
2023/08/17 00:59:58;;;;;;;7.65;6.00;;;15.00;99.90;;;;;;5087183;28;20736;-92
2023/08/17 01:02:24;;;;;;;6.07;4.65;;;15.20;99.90;;;;;;5069433;28;20929;-93
2023/08/17 01:04:50;;;;;;;6.97;5.72;;;14.90;99.90;;;;;;5069964;28;21015;-92
2023/08/17 01:07:15;;;;;;;8.37;6.40;;;14.90;99.90;;;;;;5070041;28;20398;-92
2023/08/17 01:09:41;;;;;;;8.80;5.43;;;14.80;99.90;;;;;;5074149;28;20394;-92
2023/08/17 01:12:19;;;;;;;6.43;5.13;;;14.90;99.90;;;;;;5073581;28;20419;-92
2023/08/17 01:15:22;;;;;;;7.22;4.82;;;14.80;99.90;;;;;;5073510;28;20405;-92
2023/08/17 01:17:58;;;;;;;8.27;5.30;;;14.70;99.90;;;;;;5073732;28;21021;-93
2023/08/17 01:20:25;;;;;;;7.37;5.80;;;15.10;99.90;;;;;;5073081;28;20413;-91
2023/08/17 01:22:56;;;;;;;8.87;6.30;;;14.60;99.90;;;;;;5074093;28;21200;-92
2023/08/17 01:25:22;;;;;;;9.98;6.97;;;14.60;99.90;;;;;;5073005;28;20500;-92
2023/08/17 01:27:48;;;;;;;8.50;6.43;;;14.60;99.90;;;;;;5073633;28;20398;-92
2023/08/17 01:30:16;;;;;;;8.27;6.63;;;14.60;99.90;;;;;;5073303;28;20863;-93
2023/08/17 01:33:09;;;;;;;8.88;7.13;;;14.80;99.90;;;;;;5072507;28;20414;-92
2023/08/17 01:35:46;;;;;;;9.63;6.60;;;14.40;99.90;;;;;;5068783;28;20410;-92
2023/08/17 01:38:17;;;;;;;9.00;6.63;;;14.40;99.90;;;;;;5073168;28;20410;-92
2023/08/17 01:40:45;;;;;;;7.47;5.65;;;14.50;99.90;;;;;;5072990;28;20393;-92
2023/08/17 01:43:12;;;;;;;6.78;5.45;;;14.30;99.90;;;;;;5073541;28;20781;-92
2023/08/17 01:45:38;;;;;;;6.82;5.65;;;14.70;99.90;;;;;;5072496;28;20513;-93
2023/08/17 01:48:04;;;;;;;7.00;5.20;;;15.00;99.90;;;;;;5073217;28;20469;-92
2023/08/17 01:50:29;;;;;;;7.47;5.57;;;14.20;99.90;;;;;;5089076;28;20481;-92
2023/08/17 01:52:55;;;;;;;6.43;4.70;;;14.30;99.90;;;;;;5089871;28;20952;-90
2023/08/17 01:55:23;;;;;;;8.70;6.43;;;14.30;99.90;;;;;;5072797;28;20398;-92
2023/08/17 01:57:48;;;;;;;8.65;6.68;;;14.40;99.90;;;;;;5073237;28;20439;-91
2023/08/17 02:00:15;;;;;;;7.68;5.53;;;14.50;99.90;;;;;;5073465;28;20414;-91
2023/08/17 02:02:41;;;;;;;8.77;6.13;;;14.40;99.90;;;;;;5072589;28;20540;-92
2023/08/17 02:05:07;;;;;;;9.35;6.53;;;14.40;99.90;;;;;;5072759;28;20981;-93
2023/08/17 02:07:33;;;;;;;10.48;5.80;;;14.50;99.90;;;;;;5089231;28;20491;-94
2023/08/17 02:09:58;;;;;;;8.30;5.67;;;14.50;99.90;;;;;;5072984;28;20450;-92
2023/08/17 02:12:24;;;;;;;9.60;6.55;;;14.80;99.90;;;;;;5072374;28;20502;-93
2023/08/17 02:14:50;;;;;;;10.52;5.75;;;14.60;99.90;;;;;;5072963;28;20398;-92
2023/08/17 02:17:16;;;;;;;9.30;6.05;;;14.80;99.90;;;;;;5072693;28;20404;-92
2023/08/17 02:19:47;;;;;;;11.07;6.83;;;14.80;99.90;;;;;;5071314;28;20441;-92
2023/08/17 02:22:13;;;;;;;11.05;5.72;;;14.90;99.90;;;;;;5072589;28;20390;-92
2023/08/17 02:24:39;;;;;;;8.52;5.57;;;14.80;99.90;;;;;;5088908;28;20465;-92
2023/08/17 02:27:04;;;;;;;8.40;5.53;;;15.40;99.90;;;;;;5072203;28;20442;-91
2023/08/17 02:29:30;;;;;;;7.47;5.78;;;14.80;99.90;;;;;;5088503;28;20459;-91
2023/08/17 02:31:56;;;;;;;10.63;5.87;;;14.90;99.90;;;;;;5072382;28;20398;-91
2023/08/17 02:34:21;;;;;;;9.05;6.22;;;15.30;99.90;;;;;;5072352;28;20413;-91
2023/08/17 02:36:47;;;;;;;9.27;6.47;;;15.10;99.90;;;;;;5072018;28;20966;-92
2023/08/17 02:39:13;;;;;;;8.40;6.30;;;15.00;99.90;;;;;;5072662;28;20757;-91
2023/08/17 02:41:39;;;;;;;10.73;6.20;;;15.00;99.90;;;;;;5071563;28;20410;-92
2023/08/17 02:44:05;;;;;;;7.97;5.68;;;15.10;99.90;;;;;;5071898;28;20414;-92
2023/08/17 02:46:30;;;;;;;10.00;6.82;;;15.00;99.90;;;;;;5071467;28;20410;-91
2023/08/17 02:48:56;;;;;;;8.77;6.47;;;15.20;99.90;;;;;;5071580;28;20390;-92
2023/08/17 02:51:22;;;;;;;11.07;6.53;;;15.10;99.90;;;;;;5071342;28;20450;-92
2023/08/17 02:53:47;;;;;;;8.52;6.55;;;15.10;99.90;;;;;;5072147;28;20412;-93
2023/08/17 02:56:13;;;;;;;10.13;7.10;;;14.90;99.90;;;;;;5071548;28;20485;-91
2023/08/17 02:58:42;;;;;;;9.35;6.45;;;15.10;99.90;;;;;;5071672;28;20559;-92
2023/08/17 03:01:08;;;;;;;9.57;5.78;;;15.10;99.90;;;;;;5071672;28;20489;-93
2023/08/17 03:03:34;;;;;;;10.75;6.53;;;15.00;99.90;;;;;;5071507;28;20404;-93
2023/08/17 03:06:01;;;;;;;9.38;6.35;;;15.00;99.90;;;;;;5071605;28;20433;-92
2023/08/17 03:08:26;;;;;;;11.65;6.45;;;15.00;99.90;;;;;;5071270;28;20398;-92
2023/08/17 03:10:52;;;;;;;8.00;6.53;;;15.20;99.90;;;;;;5072173;28;20480;-92
2023/08/17 03:13:17;;;;;;;9.37;5.80;;;15.00;99.90;;;;;;5088021;28;20406;-92
2023/08/17 03:15:43;;;;;;;9.65;6.32;;;15.00;99.90;;;;;;5071358;28;20406;-92
2023/08/17 03:18:09;;;;;;;10.63;6.30;;;14.90;99.90;;;;;;5071357;28;20398;-91
2023/08/17 03:20:34;;;;;;;10.57;6.50;;;14.80;99.90;;;;;;5070623;28;20409;-93
2023/08/17 03:23:00;;;;;;;8.47;6.30;;;15.10;99.90;;;;;;5071325;28;20406;-93
2023/08/17 03:25:26;;;;;;;10.32;6.28;;;14.80;99.90;;;;;;5071325;28;20398;-92
2023/08/17 03:27:52;;;;;;;9.32;6.30;;;14.70;99.90;;;;;;5071173;28;20406;-91
2023/08/17 03:30:17;;;;;;;9.30;6.10;;;14.90;99.90;;;;;;5070858;28;20417;-92
2023/08/17 03:32:43;;;;;;;8.85;6.28;;;14.80;99.90;;;;;;5070790;28;20937;-91
2023/08/17 03:35:09;;;;;;;9.67;6.40;;;14.80;99.90;;;;;;5070770;28;20902;-91
2023/08/17 03:37:34;;;;;;;9.00;7.10;;;14.50;99.90;;;;;;5087098;28;20958;-92
2023/08/17 03:40:00;;;;;;;8.73;6.90;;;14.50;99.90;;;;;;5070380;28;20511;-92
2023/08/17 03:42:26;;;;;;;11.00;7.60;;;14.80;99.90;;;;;;5070533;28;20910;-91
2023/08/17 03:44:52;;;;;;;9.23;6.90;;;14.70;99.90;;;;;;5070836;28;20421;-93
2023/08/17 03:47:19;;;;;;;11.37;7.50;;;14.50;99.90;;;;;;5070221;28;20420;-92
2023/08/17 03:49:46;;;;;;;9.85;6.68;;;14.60;99.90;;;;;;5070501;28;20491;-93
2023/08/17 03:52:12;;;;;;;9.80;7.40;;;14.70;99.90;;;;;;5070455;28;20438;-91
2023/08/17 03:54:37;;;;;;;9.93;6.80;;;14.50;99.90;;;;;;5070683;28;20916;-92
2023/08/17 03:57:03;;;;;;;9.98;7.10;;;14.60;99.90;;;;;;5070928;28;20805;-92
2023/08/17 03:59:29;;;;;;;9.23;6.72;;;14.30;99.90;;;;;;5070049;28;20437;-93
2023/08/17 04:01:54;;;;;;;7.43;6.13;;;14.60;99.90;;;;;;5070440;28;20443;-91
2023/08/17 04:04:20;;;;;;;10.07;6.90;;;14.50;99.90;;;;;;5070136;28;20446;-93
2023/08/17 04:06:46;;;;;;;8.63;5.90;;;14.30;99.90;;;;;;5070191;28;20442;-93
2023/08/17 04:09:12;;;;;;;8.80;6.30;;;14.50;99.90;;;;;;5070209;28;20439;-92
2023/08/17 04:11:38;;;;;;;9.73;7.28;;;14.50;99.90;;;;;;5087213;28;20429;-93
2023/08/17 04:14:04;;;;;;;10.87;6.43;;;14.30;99.90;;;;;;5070564;28;20441;-92
2023/08/17 04:16:30;;;;;;;8.18;6.32;;;14.80;99.90;;;;;;5068093;28;20449;-92
2023/08/17 04:18:55;;;;;;;10.50;6.93;;;14.60;99.90;;;;;;5050387;28;20425;-93
2023/08/17 04:21:21;;;;;;;9.07;7.20;;;14.40;99.90;;;;;;5049760;28;20408;-93
2023/08/17 04:23:47;;;;;;;10.80;7.47;;;14.70;99.90;;;;;;5066989;28;20443;-93
2023/08/17 04:26:13;;;;;;;11.17;7.33;;;14.80;99.90;;;;;;5049605;28;20477;-92
2023/08/17 04:28:38;;;;;;;9.30;6.97;;;14.50;99.90;;;;;;5050063;28;20404;-92
2023/08/17 04:31:04;;;;;;;8.00;6.38;;;14.80;99.90;;;;;;5050005;28;20407;-92
2023/08/17 04:33:30;;;;;;;10.03;7.47;;;14.50;99.90;;;;;;5067573;28;20411;-92
2023/08/17 04:35:55;;;;;;;10.98;7.30;;;14.60;99.90;;;;;;5050070;28;20403;-92
2023/08/17 04:38:21;;;;;;;11.68;7.07;;;14.80;99.90;;;;;;5049680;28;20760;-92
2023/08/17 04:40:47;;;;;;;10.60;8.10;;;14.50;99.90;;;;;;5049858;28;20407;-92
2023/08/17 04:43:13;;;;;;;9.48;7.20;;;14.60;99.90;;;;;;5049116;28;20442;-92
2023/08/17 04:45:39;;;;;;;10.65;7.85;;;14.50;99.90;;;;;;5050032;28;20939;-93
2023/08/17 04:48:06;;;;;;;10.57;7.83;;;14.70;99.90;;;;;;5049858;28;20411;-91
2023/08/17 04:50:32;;;;;;;8.30;6.60;;;14.50;99.90;;;;;;5066404;28;20412;-93
2023/08/17 04:52:58;;;;;;;13.23;7.45;;;14.50;99.90;;;;;;5049882;28;20408;-93
2023/08/17 04:55:23;;;;;;;9.52;6.80;;;14.70;99.90;;;;;;5063769;28;20482;-92
2023/08/17 04:57:49;;;;;;;8.50;6.53;;;14.50;99.90;;;;;;5048719;28;20400;-92
2023/08/17 05:00:16;;;;;;;8.13;6.57;;;14.50;99.90;;;;;;5047515;28;20443;-91
2023/08/17 05:02:42;;;;;;;9.75;6.40;;;14.50;99.90;;;;;;5047864;28;20453;-92
2023/08/17 05:05:10;;;;;;;9.18;5.90;;;14.70;99.90;;;;;;5048348;28;20502;-93
2023/08/17 05:07:35;;;;;;;8.90;5.80;;;14.80;99.90;;;;;;5049227;28;20395;-91
2023/08/17 05:10:02;;;;;;;7.43;5.40;;;14.90;99.90;;;;;;5048759;28;20457;-91
2023/08/17 05:12:28;;;;;;;7.18;5.00;;;14.80;99.90;;;;;;5047839;28;20429;-92
2023/08/17 05:14:53;;;;;;;8.00;4.10;;;14.90;99.90;;;;;;5060328;28;20447;-92
2023/08/17 05:17:19;;;;;;;6.60;3.60;;;15.30;99.90;;;;;;5048022;28;20412;-93
2023/08/17 05:19:45;;;;;;;5.28;3.35;;;15.20;99.90;;;;;;5048490;28;20482;-92
2023/08/17 05:22:12;;;;;;;5.87;3.73;;;15.20;99.90;;;;;;5048203;28;20423;-92
2023/08/17 05:24:38;;;;;;;6.13;2.90;;;15.40;99.90;;;;;;5066406;28;20538;-91
2023/08/17 05:27:04;;;;;;;6.10;2.97;;;16.00;99.90;;;;;;5049273;28;20422;-92
2023/08/17 05:29:32;;;;;;;5.10;2.70;;;15.70;99.90;;;;;;5049512;28;20404;-92
2023/08/17 05:31:58;;;;;;;5.00;2.03;;;15.80;99.90;;;;;;5049420;28;20403;-90
2023/08/17 05:34:24;;;;;;;4.43;1.80;;;15.90;99.90;;;;;;5048322;28;20414;-93
2023/08/17 05:36:49;;;;;;;5.03;1.95;;;16.00;99.90;;;;;;5049543;28;20404;-92
2023/08/17 05:39:15;;;;;;;4.63;1.70;;;16.20;99.90;;;;;;5049038;28;20426;-90
2023/08/17 05:41:41;;;;;;;4.83;1.57;;;16.40;99.90;;;;;;5049442;28;20412;-91
2023/08/17 05:44:06;;;;;;;5.88;1.60;;;16.60;99.90;;;;;;5049061;28;20808;-92
2023/08/17 05:46:33;;;;;;;3.55;1.40;;;16.80;99.90;;;;;;5049107;28;20436;-91
2023/08/17 05:49:00;;;;;;;3.55;1.55;;;16.80;99.90;;;;;;5048667;28;20922;-90
2023/08/17 05:51:26;;;;;;;4.72;1.45;;;16.90;99.90;;;;;;5048705;28;20889;-92
2023/08/17 05:53:51;;;;;;;3.42;1.10;;;17.10;99.90;;;;;;5049530;28;20490;-93
2023/08/17 05:56:17;;;;;;;3.77;1.20;;;17.20;99.90;;;;;;5068471;28;20407;-91
2023/08/17 05:58:43;;;;;;;3.30;1.08;;;17.70;99.90;;;;;;5052495;28;20419;-92
2023/08/17 06:01:10;;;;;;;4.80;1.10;;;17.80;99.90;;;;;;5052055;28;20407;-92
2023/08/17 06:03:37;;;;;;;5.00;1.20;;;18.10;99.90;;;;;;5024444;28;20772;-93
2023/08/17 06:06:03;;;;;;;4.75;1.10;;;17.70;99.90;;;;;;5012179;28;20431;-92
2023/08/17 06:08:29;;;;;;;3.72;1.13;;;18.10;99.90;;;;;;5012858;28;20465;-92
2023/08/17 06:10:55;;;;;;;5.65;0.88;;;18.20;99.90;;;;;;5012465;28;20418;-92
2023/08/17 06:13:21;;;;;;;4.57;0.88;;;18.40;99.90;;;;;;5011461;28;20767;-91
2023/08/17 06:15:47;;;;;;;3.47;0.60;;;18.50;99.90;;;;;;5028945;28;20948;-93
2023/08/17 06:18:12;;;;;;;4.70;0.75;;;18.60;99.90;;;;;;5012078;28;20415;-91
2023/08/17 06:20:38;;;;;;;3.50;0.70;;;19.00;99.90;;;;;;5012889;28;20479;-92
2023/08/17 06:23:04;;;;;;;3.73;0.77;;;18.80;99.90;;;;;;5012274;28;20419;-93
2023/08/17 06:25:30;;;;;;;3.67;0.80;;;19.10;99.90;;;;;;5012396;28;20434;-92
2023/08/17 06:27:55;;;;;;;4.00;1.10;;;18.80;99.90;;;;;;5012460;28;20403;-93
2023/08/17 06:30:21;;;;;;;2.22;0.63;;;18.90;99.90;;;;;;5012106;28;20776;-92
2023/08/17 06:32:47;;;;;;;4.15;0.70;;;18.90;99.90;;;;;;5012487;28;20419;-91
2023/08/17 06:35:15;;;;;;;3.87;0.70;;;18.90;99.90;;;;;;5011942;28;20383;-92
2023/08/17 06:37:41;;;;;;;3.78;0.70;;;19.20;99.90;;;;;;5012882;28;20783;-93
2023/08/17 06:40:07;;;;;;;3.85;0.70;;;19.10;99.90;;;;;;5011407;28;20410;-89
2023/08/17 06:42:33;;;;;;;4.18;0.80;;;19.20;99.90;;;;;;5012987;28;20414;-93
2023/08/17 06:44:59;;;;;;;3.90;1.17;;;19.20;99.90;;;;;;5028835;28;20510;-91
2023/08/17 06:47:24;;;;;;;3.13;0.80;;;19.50;99.90;;;;;;5011921;28;20399;-91
2023/08/17 06:49:50;;;;;;;3.15;0.70;;;19.20;99.90;;;;;;5022206;28;20410;-93
2023/08/17 06:52:16;;;;;;;4.70;0.87;;;19.10;99.90;;;;;;5031893;28;20408;-92
2023/08/17 06:54:42;;;;;;;3.90;0.88;;;19.30;99.90;;;;;;5032546;28;20412;-94
2023/08/17 06:57:08;;;;;;;3.55;0.80;;;19.40;99.90;;;;;;5031507;28;20448;-93
2023/08/17 06:59:34;;;;;;;3.95;0.70;;;19.80;99.90;;;;;;4998867;28;20509;-93
2023/08/17 07:02:03;;;;;;;3.33;0.60;;;19.40;99.90;;;;;;5031648;28;20434;-94
2023/08/17 07:04:28;;;;;;;3.67;0.80;;;19.60;99.90;;;;;;5016654;28;20767;-92
2023/08/17 07:06:55;;;;;;;4.18;0.85;;;19.80;99.90;;;;;;5049347;28;20427;-94
2023/08/17 07:09:21;;;;;;;5.30;0.90;;;20.10;99.90;;;;;;5032211;28;20925;-93
2023/08/17 07:11:47;;;;;;;4.72;0.70;;;19.90;99.90;;;;;;5033230;28;20401;-94
2023/08/17 07:14:12;;;;;;;5.53;0.63;;;19.90;99.90;;;;;;5014988;28;20425;-91
2023/08/17 07:16:38;;;;;;;4.68;0.68;;;19.90;99.90;;;;;;5031164;28;20405;-92
2023/08/17 07:19:04;;;;;;;4.10;0.70;;;19.90;99.90;;;;;;5031576;28;20441;-93
2023/08/17 07:21:29;;;;;;;3.55;0.50;;;19.80;99.90;;;;;;5032905;28;20825;-92
2023/08/17 07:23:55;;;;;;;3.67;0.65;;;19.70;99.90;;;;;;5031509;28;20405;-91
2023/08/17 07:26:22;;;;;;;3.83;0.50;;;19.50;99.90;;;;;;5031695;28;20425;-93
2023/08/17 07:28:48;;;;;;;3.00;0.40;;;19.50;99.90;;;;;;5033099;28;20444;-92
2023/08/17 07:31:15;;;;;;;4.40;0.50;;;19.70;99.90;;;;;;5047429;28;20830;-91
2023/08/17 07:33:41;;;;;;;3.07;0.47;;;19.30;99.90;;;;;;5031266;28;20413;-92
2023/08/17 07:36:06;;;;;;;3.10;0.50;;;19.70;99.90;;;;;;5031565;28;20496;-93
2023/08/17 07:38:32;;;;;;;4.43;0.70;;;19.30;99.90;;;;;;5032368;28;20447;-93
2023/08/17 07:40:58;;;;;;;4.30;0.50;;;19.60;99.90;;;;;;5031529;28;20484;-92
2023/08/17 07:43:24;;;;;;;2.53;0.40;;;19.70;99.90;;;;;;5031160;28;20406;-93
2023/08/17 07:45:54;;;;;;;3.45;0.43;;;19.40;99.90;;;;;;5031707;28;20426;-91
2023/08/17 07:48:20;;;;;;;3.50;0.52;;;19.90;99.90;;;;;;5049406;28;20871;-93
2023/08/17 07:50:50;;;;;;;3.42;0.35;;;19.70;99.90;;;;;;5050750;28;20409;-94
2023/08/17 07:53:17;;;;;;;3.58;0.50;;;20.10;99.90;;;;;;5048493;28;20400;-93
2023/08/17 07:55:43;;;;;;;3.42;0.43;;;19.90;99.90;;;;;;5050156;28;20408;-92
2023/08/17 07:58:09;;;;;;;4.97;0.40;;;19.80;99.90;;;;;;5030784;28;20775;-92
2023/08/17 08:00:37;;;;;;;2.87;0.40;;;20.20;99.90;;;;;;5048545;28;20431;-93
2023/08/17 08:03:09;;;;;;;2.67;0.40;;;20.30;99.90;;;;;;5052517;28;20435;-93
2023/08/17 08:05:35;;;;;;;3.67;0.50;;;20.60;99.90;;;;;;5052661;28;20449;-93
2023/08/17 08:08:00;;;;;;;2.63;0.40;;;20.90;99.90;;;;;;5068226;28;20469;-89
2023/08/17 08:10:27;;;;;;;2.10;0.37;;;21.10;99.90;;;;;;5050703;28;20400;-93
2023/08/17 08:12:53;;;;;;;2.85;0.30;;;20.80;99.90;;;;;;5067899;28;20399;-88
2023/08/17 08:15:19;;;;;;;2.30;0.32;;;20.80;99.90;;;;;;5051050;28;20392;-93
2023/08/17 08:17:45;;;;;;;3.60;0.40;;;20.90;99.90;;;;;;5067582;28;20424;-93
2023/08/17 08:20:11;;;;;;;2.43;0.30;;;21.20;99.90;;;;;;5052174;28;20414;-91
2023/08/17 08:22:36;;;;;;;4.82;0.40;;;21.60;99.90;;;;;;5051626;28;20763;-91
2023/08/17 08:25:02;;;;;;;2.17;0.30;;;22.30;98.40;;;;;;5051802;28;20428;-92
2023/08/17 08:27:28;;;;;;;2.67;0.20;;;21.90;95.40;;;;;;5051394;28;20404;-92
2023/08/17 08:29:55;;;;;;;2.30;0.30;;;21.90;92.50;;;;;;5051504;28;20395;-93
2023/08/17 08:32:21;;;;;;;2.30;0.40;;;22.00;95.20;;;;;;5050889;28;20400;-92
2023/08/17 08:34:47;;;;;;;2.63;0.30;;;21.80;95.40;;;;;;5067928;28;20872;-92
2023/08/17 08:37:12;;;;;;;2.33;0.30;;;21.90;96.70;;;;;;5049933;28;20408;-89
2023/08/17 08:39:51;;;;;;;4.47;0.40;;;22.00;96.60;;;;;;5051529;28;20403;-90
2023/08/17 08:42:18;;;;;;;3.33;0.33;;;21.60;96.50;;;;;;5066573;28;20542;-91
2023/08/17 08:44:45;;;;;;;2.08;0.30;;;21.70;96.20;;;;;;5050827;28;20914;-91
2023/08/17 08:47:12;;;;;;;2.10;0.20;;;21.20;95.50;;;;;;5050123;28;20405;-89
2023/08/17 08:50:08;;;;;;;4.53;0.30;;;21.30;97.70;;;;;;5067243;28;20411;-93
2023/08/17 08:52:55;;;;;;;4.25;0.30;;;21.30;98.60;;;;;;5051445;28;20419;-92
2023/08/17 08:55:26;;;;;;;3.28;0.50;;;21.50;98.10;;;;;;5049436;28;20460;-92
2023/08/17 08:57:53;;;;;;;3.45;0.50;;;21.70;96.30;;;;;;5053537;28;20957;-93
2023/08/17 09:00:19;;;;;;;3.03;0.40;;;21.50;95.80;;;;;;5067753;28;20399;-91
2023/08/17 09:02:46;;;;;;;3.95;0.50;;;21.90;96.20;;;;;;5067534;28;20396;-88
2023/08/17 09:05:13;;;;;;;2.65;0.50;;;22.10;92.90;;;;;;5051767;28;20498;-89
2023/08/17 09:07:40;;;;;;;3.20;0.40;;;21.90;96.50;;;;;;5069093;28;20927;-93
2023/08/17 09:10:06;;;;;;;3.42;0.70;;;21.90;95.80;;;;;;5067034;28;20408;-92
2023/08/17 09:12:38;;;;;;;3.40;0.40;;;21.80;95.10;;;;;;5050876;28;20772;-93
2023/08/17 09:15:04;;;;;;;2.72;0.38;;;22.10;93.30;;;;;;5050648;28;20454;-91
2023/08/17 09:17:34;;;;;;;3.03;0.55;;;21.80;95.00;;;;;;5049974;28;20407;-88
2023/08/17 09:20:00;;;;;;;2.70;0.30;;;22.30;93.40;;;;;;5051589;28;20403;-91
2023/08/17 09:22:41;;;;;;;2.53;0.40;;;22.00;92.20;;;;;;5050330;28;20495;-87
2023/08/17 09:25:08;;;;;;;2.50;0.30;;;22.00;90.10;;;;;;5036825;28;20538;-91
2023/08/17 09:27:34;;;;;;;3.37;0.40;;;22.00;90.00;;;;;;5051422;28;20753;-90
2023/08/17 09:30:10;;;;;;;2.85;0.50;;;22.00;90.40;;;;;;5051781;28;20411;-90
2023/08/17 09:32:36;;;;;;;3.55;0.40;;;21.80;91.70;;;;;;5053482;28;20501;-92
2023/08/17 09:35:06;;;;;;;4.75;0.50;;;21.90;93.50;;;;;;5054257;28;20462;-91
2023/08/17 09:37:33;;;;;;;3.72;0.40;;;22.10;98.00;;;;;;5070437;28;20412;-90
2023/08/17 09:39:59;;;;;;;2.25;0.40;;;22.50;98.60;;;;;;5053277;28;20403;-92
2023/08/17 09:42:25;;;;;;;2.97;0.30;;;22.80;88.10;;;;;;5054910;28;20412;-90
2023/08/17 09:44:55;;;;;;;2.60;0.38;;;23.10;88.40;;;;;;5055280;28;20430;-94
2023/08/17 09:47:22;;;;;;;3.65;0.30;;;23.40;84.50;;;;;;5055102;28;20416;-93
2023/08/17 09:49:50;;;;;;;2.63;0.40;;;23.20;81.60;;;;;;5044832;28;20421;-89
2023/08/17 09:52:23;;;;;;;2.40;0.30;;;23.40;84.40;;;;;;5044792;28;20397;-94
2023/08/17 09:54:52;;;;;;;4.15;0.40;;;23.50;81.70;;;;;;5036708;28;20413;-93
2023/08/17 09:57:18;;;;;;;3.28;0.40;;;23.60;83.80;;;;;;5032144;28;20785;-90
2023/08/17 09:59:43;;;;;;;3.33;0.67;;;23.80;78.90;;;;;;5036428;28;20410;-93
2023/08/17 10:02:19;;;;;;;3.70;0.60;;;23.80;75.20;;;;;;5036269;28;20968;-92
2023/08/17 10:04:51;;;;;;;2.70;0.33;;;24.00;87.70;;;;;;5051049;28;20413;-91
2023/08/17 10:07:24;;;;;;;3.83;0.40;;;24.00;73.20;;;;;;5033441;28;20413;-93
2023/08/17 10:10:05;;;;;;;3.47;0.40;;;24.30;72.30;;;;;;5035375;28;20406;-93
2023/08/17 10:13:13;;;;;;;4.10;0.43;;;24.40;70.30;;;;;;5030961;28;20911;-90
2023/08/17 10:16:05;;;;;;;3.03;0.50;;;24.60;70.00;;;;;;4970251;28;20422;-92
2023/08/17 10:19:03;;;;;;;3.70;0.47;;;24.60;64.10;;;;;;5009677;28;20822;-93
2023/08/17 10:21:37;;;;;;;3.88;0.75;;;24.40;63.10;;;;;;4993337;28;20427;-93
2023/08/17 10:24:20;;;;;;;5.65;0.60;;;24.40;64.90;;;;;;5016122;28;20407;-95
2023/08/17 10:26:49;;;;;;;5.13;0.50;;;24.30;65.70;;;;;;5014074;28;20427;-93
2023/08/17 10:29:16;;;;;;;4.57;0.52;;;24.30;69.20;;;;;;5029062;28;20784;-90
2023/08/17 10:31:47;;;;;;;3.30;0.50;;;24.40;65.40;;;;;;5031043;28;20399;-94
2023/08/17 10:34:13;;;;;;;3.17;0.43;;;24.10;65.90;;;;;;5015829;28;20415;-90
2023/08/17 10:36:41;;;;;;;3.20;0.60;;;24.10;72.80;;;;;;5014815;28;20454;-93
2023/08/17 10:39:23;;;;;;;4.63;0.70;;;24.50;69.30;;;;;;4997572;28;20422;-91
2023/08/17 10:41:51;;;;;;;3.50;0.60;;;24.40;72.10;;;;;;5030869;28;20426;-94
2023/08/17 10:44:43;;;;;;;4.10;0.50;;;24.90;65.60;;;;;;5014261;28;20422;-93
2023/08/17 10:47:25;;;;;;;3.75;0.40;;;25.30;66.50;;;;;;4986707;28;20416;-94
2023/08/17 10:50:04;;;;;;;3.40;0.38;;;25.80;65.30;;;;;;5040699;28;20428;-90
2023/08/17 10:52:35;;;;;;;2.63;0.52;;;26.30;62.10;;;;;;5032400;28;20410;-92
2023/08/17 10:55:06;;;;;;;3.75;0.50;;;26.20;57.50;;;;;;5033494;28;20801;-91
2023/08/17 10:57:35;;;;;;;3.63;0.50;;;26.00;58.30;;;;;;5034818;28;20405;-89
2023/08/17 11:00:26;;;;;;;4.30;0.60;;;26.10;58.90;;;;;;5032852;28;20428;-91
2023/08/17 11:03:05;;;;;;;4.90;0.40;;;25.50;57.20;;;;;;5032712;28;20909;-92
2023/08/17 11:05:44;;;;;;;2.55;0.45;;;25.20;58.60;;;;;;5033645;28;20825;-94
2023/08/17 11:08:33;;;;;;;3.00;0.40;;;25.10;59.90;;;;;;5032992;28;20496;-92
2023/08/17 11:11:05;;;;;;;3.40;0.40;;;25.20;68.60;;;;;;5031660;28;20893;-91
2023/08/17 11:13:39;;;;;;;3.05;0.30;;;25.80;63.50;;;;;;5041963;28;20408;-90
2023/08/17 11:16:06;;;;;;;3.23;0.40;;;26.50;61.90;;;;;;5049528;28;20408;-95
2023/08/17 11:18:33;;;;;;;6.60;1.87;;;26.90;57.90;;;;;;5036317;28;20400;-91
2023/08/17 11:21:00;;;;;;;5.32;0.60;;;27.60;55.60;;;;;;5069664;28;20412;-92
2023/08/17 11:23:29;;;;;;;3.30;0.60;;;27.40;55.50;;;;;;5069318;28;20416;-91
2023/08/17 11:25:55;;;;;;;2.95;0.40;;;27.60;54.10;;;;;;5053991;28;20424;-91
2023/08/17 11:28:22;;;;;;;3.35;0.52;;;27.80;54.00;;;;;;5051331;28;20456;-90
2023/08/17 11:31:04;;;;;;;3.03;0.47;;;28.00;53.50;;;;;;5053220;28;20411;-91
2023/08/17 11:33:31;;;;;;;4.15;0.40;;;28.10;52.50;;;;;;5053201;28;20412;-90
2023/08/17 11:35:58;;;;;;;3.95;0.50;;;28.10;54.40;;;;;;5052909;28;20411;-90
2023/08/17 11:38:26;;;;;;;3.70;0.45;;;27.60;50.90;;;;;;5052070;28;20983;-88
2023/08/17 11:40:52;;;;;;;4.70;0.50;;;27.40;54.00;;;;;;5051003;28;20423;-93
2023/08/17 11:43:20;;;;;;;4.15;0.90;;;27.30;55.00;;;;;;5070584;28;20467;-91
2023/08/17 11:45:46;;;;;;;6.10;1.27;;;27.40;54.10;;;;;;5053573;28;20480;-92
2023/08/17 11:48:11;;;;;;;3.75;0.60;;;27.00;56.30;;;;;;5052588;28;20809;-93
2023/08/17 11:50:39;;;;;;;3.30;0.50;;;26.70;55.30;;;;;;5052443;28;20416;-91
2023/08/17 11:53:05;;;;;;;4.13;0.60;;;26.30;56.60;;;;;;5050925;28;20824;-94
2023/08/17 11:55:31;;;;;;;5.45;1.33;;;26.00;58.20;;;;;;5050864;28;20458;-89
2023/08/17 11:57:57;;;;;;;5.37;0.60;;;25.80;60.00;;;;;;5068557;28;20404;-90
2023/08/17 12:00:25;;;;;;;13.05;4.72;;;25.50;59.00;;;;;;5050204;28;20553;-92
2023/08/17 12:02:52;;;;;;;5.15;1.23;;;25.20;59.80;;;;;;5047051;28;20413;-91
2023/08/17 12:05:26;;;;;;;6.68;2.08;;;25.40;62.70;;;;;;5032234;28;20930;-89
2023/08/17 12:07:56;;;;;;;7.18;1.83;;;25.00;64.20;;;;;;5032248;28;20410;-93
2023/08/17 12:10:24;;;;;;;5.60;1.27;;;24.90;64.50;;;;;;5017594;28;20413;-93
2023/08/17 12:12:50;;;;;;;4.38;0.73;;;24.80;70.10;;;;;;5031146;28;20409;-93
2023/08/17 12:15:19;;;;;;;4.72;0.70;;;24.90;66.40;;;;;;5033126;28;20801;-93
2023/08/17 12:17:47;;;;;;;5.70;1.03;;;24.60;66.30;;;;;;5033108;28;20413;-92
2023/08/17 12:20:35;;;;;;;4.35;0.80;;;24.80;68.10;;;;;;5032475;28;20398;-93
2023/08/17 12:23:02;;;;;;;4.40;0.80;;;24.60;69.80;;;;;;5040827;28;20983;-92
2023/08/17 12:25:30;;;;;;;4.85;1.05;;;24.60;78.30;;;;;;5049404;28;20658;-91
2023/08/17 12:27:58;;;;;;;4.22;0.80;;;24.40;69.00;;;;;;5050876;28;20538;-93
2023/08/17 12:30:32;;;;;;;4.95;1.00;;;24.40;72.80;;;;;;5047070;28;20467;-95
2023/08/17 12:32:59;;;;;;;3.83;0.90;;;24.20;77.00;;;;;;5051196;28;20412;-93
2023/08/17 12:35:27;;;;;;;6.18;0.90;;;24.10;74.30;;;;;;5050439;28;20442;-92
2023/08/17 12:37:54;;;;;;;4.13;0.82;;;23.90;76.90;;;;;;5051466;28;20419;-91
2023/08/17 12:40:21;;;;;;;4.25;1.02;;;23.80;78.80;;;;;;5066807;28;20407;-94
2023/08/17 12:42:47;;;;;;;4.47;1.20;;;23.90;85.40;;;;;;5049722;28;20403;-92
2023/08/17 12:45:13;;;;;;;4.20;1.13;;;23.80;86.50;;;;;;5051167;28;20841;-92
2023/08/17 12:47:39;;;;;;;4.28;1.05;;;24.00;84.40;;;;;;5049589;28;20503;-91
2023/08/17 12:50:05;;;;;;;3.63;0.80;;;23.70;86.50;;;;;;5049072;28;21000;-91